createdAt,value
2023-05-14T00:09:38.376Z,11.2
2023-05-14T00:19:40.953Z,11.1
2023-05-14T00:29:42.675Z,11.2
2023-05-14T00:39:44.785Z,11.1
2023-05-14T00:49:47.269Z,11
2023-05-14T00:59:49.207Z,10.8
2023-05-14T01:09:50.819Z,10.4
2023-05-14T01:19:52.856Z,10.2
2023-05-14T01:29:54.748Z,10.1
2023-05-14T01:39:56.702Z,10
2023-05-14T01:49:58.619Z,10
2023-05-14T02:10:03.694Z,9.7
2023-05-14T02:20:06.179Z,9.6
2023-05-14T02:30:08.075Z,9.6
2023-05-14T02:40:10.589Z,9.7
2023-05-14T02:50:13.021Z,9.6
2023-05-14T03:00:15.491Z,9.3
2023-05-14T03:10:17.513Z,9.2
2023-05-14T03:30:22.845Z,9
2023-05-14T03:40:25.233Z,9.1
2023-05-14T04:00:29.498Z,9
2023-05-14T04:10:31.844Z,9
2023-05-14T04:20:34.042Z,9.1
2023-05-14T04:30:36.024Z,9.1
2023-05-14T05:00:43.025Z,9.9
2023-05-14T05:20:46.971Z,10.2
2023-05-14T05:40:50.774Z,10.3
2023-05-14T05:50:52.855Z,10.6
2023-05-14T06:00:54.935Z,10.9
2023-05-14T06:10:57.439Z,11.4
2023-05-14T06:20:59.654Z,12
2023-05-14T06:41:03.837Z,13
2023-05-14T07:01:07.480Z,13.9
2023-05-14T07:41:17.009Z,16
2023-05-14T08:01:20.540Z,17
2023-05-14T08:11:22.890Z,17.4
2023-05-14T08:21:25.033Z,17.5
2023-05-14T08:31:27.479Z,17.7
2023-05-14T08:41:29.752Z,18.3
2023-05-14T08:51:31.902Z,18.9
2023-05-14T09:01:33.895Z,19.1
2023-05-14T09:21:37.906Z,19.4
2023-05-14T10:42:16.964Z,20.1
2023-05-14T10:52:04.321Z,19.8
2023-05-14T11:02:06.595Z,20.8
2023-05-14T11:12:08.783Z,21.2
2023-05-14T11:22:10.678Z,20.8
2023-05-14T11:42:14.988Z,20.8
2023-05-14T11:52:17.071Z,20.3
2023-05-14T12:02:19.473Z,21.2
2023-05-14T12:12:21.631Z,21.5
2023-05-14T12:22:24.206Z,22.1
2023-05-14T12:32:26.366Z,21.5
2023-05-14T12:42:28.323Z,21.6
2023-05-14T12:52:37.256Z,22.4
2023-05-14T13:22:36.745Z,21.8
2023-05-14T13:32:41.521Z,21.7
2023-05-14T13:42:41.057Z,21.8
2023-05-14T13:52:42.772Z,21.8
2023-05-14T14:02:45.177Z,22.2
2023-05-14T14:12:47.082Z,22.1
2023-05-14T14:22:49.614Z,22.1
2023-05-14T14:42:53.152Z,21.9
2023-05-14T14:52:55.234Z,21.6
2023-05-14T15:02:57.606Z,22.1
2023-05-14T15:12:59.886Z,21.4
2023-05-14T15:23:02.123Z,21.5
2023-05-14T15:33:04.124Z,21.3
2023-05-14T15:43:06.706Z,21.6
2023-05-14T15:53:08.809Z,21.2
2023-05-14T16:03:11.445Z,21.2
2023-05-14T16:13:13.524Z,21.1
2023-05-14T16:23:15.652Z,21.2
2023-05-14T16:33:17.395Z,21
2023-05-14T16:43:19.606Z,20.6
2023-05-14T16:53:22.065Z,20.7
2023-05-14T17:03:23.827Z,20.5
2023-05-14T17:13:25.966Z,20.5
2023-05-14T17:23:28.163Z,20.4
2023-05-14T17:43:32.128Z,20.3
2023-05-14T17:53:34.702Z,20
2023-05-14T18:03:37.104Z,19.7
2023-05-14T18:13:39.021Z,19.3
2023-05-14T18:23:40.785Z,18.9
2023-05-14T18:33:42.667Z,18.9
2023-05-14T18:43:44.772Z,18.6
2023-05-14T18:53:47.192Z,18.2
2023-05-14T19:03:49.416Z,18
2023-05-14T19:13:51.984Z,18.1
2023-05-14T19:23:53.657Z,17.7
2023-05-14T19:33:56.073Z,17.6
2023-05-14T19:43:58.701Z,17.8
2023-05-14T19:54:01.312Z,17.6
2023-05-14T20:04:03.038Z,17.4
2023-05-14T20:14:05.404Z,17.2
2023-05-14T20:24:07.466Z,17
2023-05-14T20:34:09.216Z,16.9
2023-05-14T20:44:11.320Z,16.6
2023-05-14T20:54:13.424Z,16.3
2023-05-14T21:04:15.871Z,16.1
2023-05-14T21:14:17.441Z,15.8
2023-05-14T21:24:19.814Z,15.7
2023-05-14T21:34:22.327Z,15.6
2023-05-14T21:44:24.891Z,15.6
2023-05-14T21:54:27.285Z,15.3
2023-05-14T22:04:29.632Z,15
2023-05-14T22:14:31.441Z,14.8
2023-05-14T22:24:33.667Z,14.5
2023-05-14T22:34:36.110Z,14.1
2023-05-14T22:44:38.025Z,14.1
2023-05-14T22:54:40.236Z,13.7
2023-05-14T23:04:42.033Z,13.4
2023-05-14T23:14:44.013Z,13.1
2023-05-14T23:34:48.182Z,13
2023-05-14T23:44:50.489Z,13
2023-05-14T23:54:52.499Z,12.6
